sensor_id;sensor_type;location;lat;lon;timestamp;temperature;humidity
578;DHT22;275;48.492;9.214;2022-12-16T00:00:38;3.10;41.10
578;DHT22;275;48.492;9.214;2022-12-16T00:03:05;3.10;41.10
578;DHT22;275;48.492;9.214;2022-12-16T00:05:31;3.00;40.90
578;DHT22;275;48.492;9.214;2022-12-16T00:08:02;3.10;41.30
578;DHT22;275;48.492;9.214;2022-12-16T00:10:30;3.40;40.00
578;DHT22;275;48.492;9.214;2022-12-16T00:13:17;3.20;40.50
578;DHT22;275;48.492;9.214;2022-12-16T00:15:44;2.30;42.60
578;DHT22;275;48.492;9.214;2022-12-16T00:18:12;1.60;44.50
578;DHT22;275;48.492;9.214;2022-12-16T00:20:43;1.80;44.50
578;DHT22;275;48.492;9.214;2022-12-16T00:23:10;1.80;44.50
578;DHT22;275;48.492;9.214;2022-12-16T00:25:40;2.00;44.00
578;DHT22;275;48.492;9.214;2022-12-16T00:28:07;2.00;44.30
578;DHT22;275;48.492;9.214;2022-12-16T00:30:33;1.90;44.50
578;DHT22;275;48.492;9.214;2022-12-16T00:33:00;2.10;43.40
578;DHT22;275;48.492;9.214;2022-12-16T00:35:27;1.80;44.40
578;DHT22;275;48.492;9.214;2022-12-16T00:37:55;1.80;44.50
578;DHT22;275;48.492;9.214;2022-12-16T00:40:23;1.80;44.40
578;DHT22;275;48.492;9.214;2022-12-16T00:42:51;2.20;43.20
578;DHT22;275;48.492;9.214;2022-12-16T00:45:18;2.40;42.90
578;DHT22;275;48.492;9.214;2022-12-16T00:47:45;2.70;42.20
578;DHT22;275;48.492;9.214;2022-12-16T00:50:14;3.40;40.20
578;DHT22;275;48.492;9.214;2022-12-16T00:52:41;3.70;39.20
578;DHT22;275;48.492;9.214;2022-12-16T00:55:09;3.70;39.00
578;DHT22;275;48.492;9.214;2022-12-16T00:57:36;3.60;38.80
578;DHT22;275;48.492;9.214;2022-12-16T01:00:06;3.50;39.10
578;DHT22;275;48.492;9.214;2022-12-16T01:02:33;3.00;40.30
578;DHT22;275;48.492;9.214;2022-12-16T01:05:00;2.60;41.50
578;DHT22;275;48.492;9.214;2022-12-16T01:07:27;2.50;41.80
578;DHT22;275;48.492;9.214;2022-12-16T01:09:54;2.40;42.50
578;DHT22;275;48.492;9.214;2022-12-16T01:12:20;2.60;42.20
578;DHT22;275;48.492;9.214;2022-12-16T01:14:48;2.80;41.30
578;DHT22;275;48.492;9.214;2022-12-16T01:17:16;3.00;41.10
578;DHT22;275;48.492;9.214;2022-12-16T01:19:43;3.40;40.10
578;DHT22;275;48.492;9.214;2022-12-16T01:22:10;3.40;39.70
578;DHT22;275;48.492;9.214;2022-12-16T01:24:38;3.10;41.20
578;DHT22;275;48.492;9.214;2022-12-16T01:27:05;2.90;41.10
578;DHT22;275;48.492;9.214;2022-12-16T01:29:32;3.10;40.80
578;DHT22;275;48.492;9.214;2022-12-16T01:31:59;3.30;40.10
578;DHT22;275;48.492;9.214;2022-12-16T01:34:27;3.20;39.80
578;DHT22;275;48.492;9.214;2022-12-16T01:36:54;3.20;40.30
578;DHT22;275;48.492;9.214;2022-12-16T01:39:21;3.30;40.00
578;DHT22;275;48.492;9.214;2022-12-16T01:41:49;3.20;40.50
578;DHT22;275;48.492;9.214;2022-12-16T01:44:18;3.30;40.00
578;DHT22;275;48.492;9.214;2022-12-16T01:46:49;3.30;39.70
578;DHT22;275;48.492;9.214;2022-12-16T01:49:20;3.70;38.70
578;DHT22;275;48.492;9.214;2022-12-16T01:51:53;3.50;39.20
578;DHT22;275;48.492;9.214;2022-12-16T01:54:24;3.10;40.00
578;DHT22;275;48.492;9.214;2022-12-16T01:56:55;3.20;40.10
578;DHT22;275;48.492;9.214;2022-12-16T01:59:23;3.20;39.90
578;DHT22;275;48.492;9.214;2022-12-16T02:01:51;3.30;39.80
578;DHT22;275;48.492;9.214;2022-12-16T02:04:18;3.00;40.50
578;DHT22;275;48.492;9.214;2022-12-16T02:06:45;2.60;41.30
578;DHT22;275;48.492;9.214;2022-12-16T02:09:14;2.30;42.30
578;DHT22;275;48.492;9.214;2022-12-16T02:12:03;2.30;42.60
578;DHT22;275;48.492;9.214;2022-12-16T02:14:52;2.50;41.80
578;DHT22;275;48.492;9.214;2022-12-16T02:17:29;2.40;42.80
578;DHT22;275;48.492;9.214;2022-12-16T02:20:38;2.90;42.00
578;DHT22;275;48.492;9.214;2022-12-16T02:23:37;2.40;42.40
578;DHT22;275;48.492;9.214;2022-12-16T02:29:20;1.90;43.80
578;DHT22;275;48.492;9.214;2022-12-16T02:31:58;2.60;42.30
578;DHT22;275;48.492;9.214;2022-12-16T02:34:33;2.70;41.40
578;DHT22;275;48.492;9.214;2022-12-16T02:37:09;2.90;40.80
578;DHT22;275;48.492;9.214;2022-12-16T02:39:44;2.70;40.60
578;DHT22;275;48.492;9.214;2022-12-16T02:42:18;2.60;41.60
578;DHT22;275;48.492;9.214;2022-12-16T02:44:53;2.80;41.30
578;DHT22;275;48.492;9.214;2022-12-16T02:47:24;2.10;42.50
578;DHT22;275;48.492;9.214;2022-12-16T02:49:52;1.60;44.20
578;DHT22;275;48.492;9.214;2022-12-16T02:52:21;2.20;42.90
578;DHT22;275;48.492;9.214;2022-12-16T02:54:52;2.70;41.30
578;DHT22;275;48.492;9.214;2022-12-16T03:00:16;2.60;42.00
578;DHT22;275;48.492;9.214;2022-12-16T03:02:52;2.40;42.10
578;DHT22;275;48.492;9.214;2022-12-16T03:05:24;2.40;42.30
578;DHT22;275;48.492;9.214;2022-12-16T03:07:52;2.80;41.30
578;DHT22;275;48.492;9.214;2022-12-16T03:10:24;3.00;40.60
578;DHT22;275;48.492;9.214;2022-12-16T03:12:54;2.90;40.30
578;DHT22;275;48.492;9.214;2022-12-16T03:15:24;3.10;40.00
578;DHT22;275;48.492;9.214;2022-12-16T03:17:54;2.90;40.70
578;DHT22;275;48.492;9.214;2022-12-16T03:20:25;2.90;40.90
578;DHT22;275;48.492;9.214;2022-12-16T03:22:54;3.20;40.10
578;DHT22;275;48.492;9.214;2022-12-16T03:25:24;3.30;39.70
578;DHT22;275;48.492;9.214;2022-12-16T03:27:56;3.40;39.00
578;DHT22;275;48.492;9.214;2022-12-16T03:30:28;3.30;39.60
578;DHT22;275;48.492;9.214;2022-12-16T03:33:02;3.30;39.40
578;DHT22;275;48.492;9.214;2022-12-16T03:35:33;3.20;39.80
578;DHT22;275;48.492;9.214;2022-12-16T03:38:04;3.40;39.20
578;DHT22;275;48.492;9.214;2022-12-16T03:40:32;3.10;39.90
578;DHT22;275;48.492;9.214;2022-12-16T03:43:00;2.80;41.00
578;DHT22;275;48.492;9.214;2022-12-16T03:45:31;3.10;39.80
578;DHT22;275;48.492;9.214;2022-12-16T03:48:00;3.10;39.80
578;DHT22;275;48.492;9.214;2022-12-16T03:50:32;3.20;40.20
578;DHT22;275;48.492;9.214;2022-12-16T03:52:59;3.50;39.50
578;DHT22;275;48.492;9.214;2022-12-16T03:55:26;3.40;39.50
578;DHT22;275;48.492;9.214;2022-12-16T03:57:53;3.40;39.50
578;DHT22;275;48.492;9.214;2022-12-16T04:00:21;3.60;38.80
578;DHT22;275;48.492;9.214;2022-12-16T04:02:48;3.70;38.90
578;DHT22;275;48.492;9.214;2022-12-16T04:05:17;3.70;38.80
578;DHT22;275;48.492;9.214;2022-12-16T04:07:44;3.80;38.60
578;DHT22;275;48.492;9.214;2022-12-16T04:10:11;3.60;38.80
578;DHT22;275;48.492;9.214;2022-12-16T04:12:37;3.50;39.30
578;DHT22;275;48.492;9.214;2022-12-16T04:15:22;3.60;39.10
578;DHT22;275;48.492;9.214;2022-12-16T04:18:14;3.60;38.80
578;DHT22;275;48.492;9.214;2022-12-16T04:21:01;3.60;39.30
578;DHT22;275;48.492;9.214;2022-12-16T04:23:48;3.70;38.70
578;DHT22;275;48.492;9.214;2022-12-16T04:26:34;3.20;39.50
578;DHT22;275;48.492;9.214;2022-12-16T04:29:21;3.10;38.80
578;DHT22;275;48.492;9.214;2022-12-16T04:31:48;3.20;39.30
578;DHT22;275;48.492;9.214;2022-12-16T04:34:15;3.40;39.30
578;DHT22;275;48.492;9.214;2022-12-16T04:36:52;3.40;38.70
578;DHT22;275;48.492;9.214;2022-12-16T04:39:36;3.10;38.90
578;DHT22;275;48.492;9.214;2022-12-16T04:42:20;2.80;40.00
578;DHT22;275;48.492;9.214;2022-12-16T04:45:05;2.70;40.50
578;DHT22;275;48.492;9.214;2022-12-16T04:47:52;2.80;40.10
578;DHT22;275;48.492;9.214;2022-12-16T04:50:36;2.40;40.30
578;DHT22;275;48.492;9.214;2022-12-16T04:53:22;2.50;40.00
578;DHT22;275;48.492;9.214;2022-12-16T04:56:06;2.60;40.60
578;DHT22;275;48.492;9.214;2022-12-16T04:58:50;2.50;41.30
578;DHT22;275;48.492;9.214;2022-12-16T05:01:34;2.60;41.00
578;DHT22;275;48.492;9.214;2022-12-16T05:04:18;2.90;39.80
578;DHT22;275;48.492;9.214;2022-12-16T05:07:02;3.10;38.60
578;DHT22;275;48.492;9.214;2022-12-16T05:09:48;3.20;39.00
578;DHT22;275;48.492;9.214;2022-12-16T05:12:32;3.30;38.10
578;DHT22;275;48.492;9.214;2022-12-16T05:15:16;3.30;37.60
578;DHT22;275;48.492;9.214;2022-12-16T05:18:07;3.10;37.80
578;DHT22;275;48.492;9.214;2022-12-16T05:20:51;3.10;38.30
578;DHT22;275;48.492;9.214;2022-12-16T05:23:35;3.20;38.10
578;DHT22;275;48.492;9.214;2022-12-16T05:26:21;3.50;37.60
578;DHT22;275;48.492;9.214;2022-12-16T05:29:05;3.50;37.20
578;DHT22;275;48.492;9.214;2022-12-16T05:31:49;3.30;37.10
578;DHT22;275;48.492;9.214;2022-12-16T05:34:33;3.10;37.50
578;DHT22;275;48.492;9.214;2022-12-16T05:37:17;2.70;38.30
578;DHT22;275;48.492;9.214;2022-12-16T05:40:01;2.70;38.40
578;DHT22;275;48.492;9.214;2022-12-16T05:42:48;2.70;38.60
578;DHT22;275;48.492;9.214;2022-12-16T05:45:32;2.80;38.80
578;DHT22;275;48.492;9.214;2022-12-16T05:48:16;2.90;38.70
578;DHT22;275;48.492;9.214;2022-12-16T05:51:00;3.20;38.10
578;DHT22;275;48.492;9.214;2022-12-16T05:53:44;3.20;38.10
578;DHT22;275;48.492;9.214;2022-12-16T05:56:40;3.30;37.60
578;DHT22;275;48.492;9.214;2022-12-16T05:59:25;3.50;37.60
578;DHT22;275;48.492;9.214;2022-12-16T06:02:09;3.30;37.90
578;DHT22;275;48.492;9.214;2022-12-16T06:04:54;3.40;38.10
578;DHT22;275;48.492;9.214;2022-12-16T06:07:38;3.50;37.80
578;DHT22;275;48.492;9.214;2022-12-16T06:10:22;3.40;37.90
578;DHT22;275;48.492;9.214;2022-12-16T06:13:06;3.40;37.50
578;DHT22;275;48.492;9.214;2022-12-16T06:15:51;3.50;36.90
578;DHT22;275;48.492;9.214;2022-12-16T06:18:36;3.40;37.50
578;DHT22;275;48.492;9.214;2022-12-16T06:21:20;3.20;38.00
578;DHT22;275;48.492;9.214;2022-12-16T06:24:05;3.20;38.00
578;DHT22;275;48.492;9.214;2022-12-16T06:26:49;2.90;38.40
578;DHT22;275;48.492;9.214;2022-12-16T06:29:30;2.60;39.00
578;DHT22;275;48.492;9.214;2022-12-16T06:32:16;2.50;40.30
578;DHT22;275;48.492;9.214;2022-12-16T06:35:00;2.70;39.60
578;DHT22;275;48.492;9.214;2022-12-16T06:37:46;3.00;38.70
578;DHT22;275;48.492;9.214;2022-12-16T06:40:31;3.30;38.10
578;DHT22;275;48.492;9.214;2022-12-16T06:43:12;3.00;38.70
578;DHT22;275;48.492;9.214;2022-12-16T06:45:59;3.30;37.60
578;DHT22;275;48.492;9.214;2022-12-16T06:48:44;3.40;37.10
578;DHT22;275;48.492;9.214;2022-12-16T06:51:28;3.10;37.90
578;DHT22;275;48.492;9.214;2022-12-16T06:54:12;3.10;38.30
578;DHT22;275;48.492;9.214;2022-12-16T06:56:56;2.70;39.30
578;DHT22;275;48.492;9.214;2022-12-16T06:59:40;2.80;39.10
578;DHT22;275;48.492;9.214;2022-12-16T07:02:25;3.10;38.50
578;DHT22;275;48.492;9.214;2022-12-16T07:05:10;3.20;38.00
578;DHT22;275;48.492;9.214;2022-12-16T07:07:54;3.30;37.70
578;DHT22;275;48.492;9.214;2022-12-16T07:10:38;2.70;39.00
578;DHT22;275;48.492;9.214;2022-12-16T07:13:23;2.80;38.90
578;DHT22;275;48.492;9.214;2022-12-16T07:16:07;3.20;37.90
578;DHT22;275;48.492;9.214;2022-12-16T07:18:51;3.20;38.10
578;DHT22;275;48.492;9.214;2022-12-16T07:21:36;3.10;38.40
578;DHT22;275;48.492;9.214;2022-12-16T07:24:20;3.20;38.20
578;DHT22;275;48.492;9.214;2022-12-16T07:27:04;3.30;38.30
578;DHT22;275;48.492;9.214;2022-12-16T07:29:48;3.10;37.80
578;DHT22;275;48.492;9.214;2022-12-16T07:32:33;3.20;37.40
578;DHT22;275;48.492;9.214;2022-12-16T07:35:17;3.30;37.30
578;DHT22;275;48.492;9.214;2022-12-16T07:38:02;3.10;37.30
578;DHT22;275;48.492;9.214;2022-12-16T07:40:47;2.90;37.30
578;DHT22;275;48.492;9.214;2022-12-16T07:43:31;2.60;37.80
578;DHT22;275;48.492;9.214;2022-12-16T07:46:15;2.50;38.40
578;DHT22;275;48.492;9.214;2022-12-16T07:48:59;2.50;39.30
578;DHT22;275;48.492;9.214;2022-12-16T07:51:43;2.50;39.30
578;DHT22;275;48.492;9.214;2022-12-16T07:54:29;2.50;39.00
578;DHT22;275;48.492;9.214;2022-12-16T07:57:13;2.80;38.90
578;DHT22;275;48.492;9.214;2022-12-16T07:59:57;2.80;37.70
578;DHT22;275;48.492;9.214;2022-12-16T08:02:41;2.60;37.70
578;DHT22;275;48.492;9.214;2022-12-16T08:05:25;2.50;38.00
578;DHT22;275;48.492;9.214;2022-12-16T08:08:10;2.60;37.80
578;DHT22;275;48.492;9.214;2022-12-16T08:10:55;2.60;37.50
578;DHT22;275;48.492;9.214;2022-12-16T08:13:39;2.70;37.50
578;DHT22;275;48.492;9.214;2022-12-16T08:16:23;3.10;36.70
578;DHT22;275;48.492;9.214;2022-12-16T08:19:08;2.90;36.60
578;DHT22;275;48.492;9.214;2022-12-16T08:21:52;3.00;36.90
578;DHT22;275;48.492;9.214;2022-12-16T08:24:36;3.10;36.30
578;DHT22;275;48.492;9.214;2022-12-16T08:27:21;3.00;36.00
578;DHT22;275;48.492;9.214;2022-12-16T08:30:07;2.90;36.70
578;DHT22;275;48.492;9.214;2022-12-16T08:32:51;2.70;37.50
578;DHT22;275;48.492;9.214;2022-12-16T08:35:35;3.10;35.60
578;DHT22;275;48.492;9.214;2022-12-16T08:38:19;3.40;34.20
578;DHT22;275;48.492;9.214;2022-12-16T08:41:04;3.40;34.10
578;DHT22;275;48.492;9.214;2022-12-16T08:43:49;3.10;34.90
578;DHT22;275;48.492;9.214;2022-12-16T08:46:34;3.40;34.50
578;DHT22;275;48.492;9.214;2022-12-16T08:49:18;3.00;36.40
578;DHT22;275;48.492;9.214;2022-12-16T08:52:02;2.70;35.30
578;DHT22;275;48.492;9.214;2022-12-16T08:54:47;2.70;35.90
578;DHT22;275;48.492;9.214;2022-12-16T08:57:31;2.40;36.30
578;DHT22;275;48.492;9.214;2022-12-16T09:00:16;2.50;35.40
578;DHT22;275;48.492;9.214;2022-12-16T09:03:00;2.20;36.70
578;DHT22;275;48.492;9.214;2022-12-16T09:05:59;2.40;37.00
578;DHT22;275;48.492;9.214;2022-12-16T09:08:43;2.60;36.00
578;DHT22;275;48.492;9.214;2022-12-16T09:11:27;3.20;35.00
578;DHT22;275;48.492;9.214;2022-12-16T09:14:12;3.70;34.10
578;DHT22;275;48.492;9.214;2022-12-16T09:16:57;4.00;33.30
578;DHT22;275;48.492;9.214;2022-12-16T09:19:42;4.30;32.20
578;DHT22;275;48.492;9.214;2022-12-16T09:22:31;4.20;32.80
578;DHT22;275;48.492;9.214;2022-12-16T09:25:16;4.40;32.20
578;DHT22;275;48.492;9.214;2022-12-16T09:28:00;4.30;31.20
578;DHT22;275;48.492;9.214;2022-12-16T09:30:44;4.10;30.90
578;DHT22;275;48.492;9.214;2022-12-16T09:33:29;4.00;30.80
578;DHT22;275;48.492;9.214;2022-12-16T09:36:16;3.90;30.80
578;DHT22;275;48.492;9.214;2022-12-16T09:39:00;3.60;31.80
578;DHT22;275;48.492;9.214;2022-12-16T09:41:54;3.60;32.80
578;DHT22;275;48.492;9.214;2022-12-16T09:44:48;3.80;32.20
578;DHT22;275;48.492;9.214;2022-12-16T09:47:41;4.10;31.80
578;DHT22;275;48.492;9.214;2022-12-16T09:50:29;4.20;31.50
578;DHT22;275;48.492;9.214;2022-12-16T09:53:17;4.40;31.20
578;DHT22;275;48.492;9.214;2022-12-16T09:56:05;4.30;31.40
578;DHT22;275;48.492;9.214;2022-12-16T09:58:53;4.20;31.90
578;DHT22;275;48.492;9.214;2022-12-16T10:01:41;3.70;32.70
578;DHT22;275;48.492;9.214;2022-12-16T10:04:38;3.70;32.90
578;DHT22;275;48.492;9.214;2022-12-16T10:07:29;4.00;31.70
578;DHT22;275;48.492;9.214;2022-12-16T10:10:19;4.10;32.00
578;DHT22;275;48.492;9.214;2022-12-16T10:13:10;4.40;32.00
578;DHT22;275;48.492;9.214;2022-12-16T10:16:05;4.50;31.90
578;DHT22;275;48.492;9.214;2022-12-16T10:18:58;4.70;30.70
578;DHT22;275;48.492;9.214;2022-12-16T10:21:49;4.40;30.90
578;DHT22;275;48.492;9.214;2022-12-16T10:24:45;4.00;32.00
578;DHT22;275;48.492;9.214;2022-12-16T10:27:35;4.20;31.10
578;DHT22;275;48.492;9.214;2022-12-16T10:30:21;4.40;30.80
578;DHT22;275;48.492;9.214;2022-12-16T10:33:08;4.50;30.80
578;DHT22;275;48.492;9.214;2022-12-16T10:35:55;3.70;32.90
578;DHT22;275;48.492;9.214;2022-12-16T10:38:41;2.90;33.40
578;DHT22;275;48.492;9.214;2022-12-16T10:41:31;2.20;36.20
578;DHT22;275;48.492;9.214;2022-12-16T10:44:21;1.80;37.30
578;DHT22;275;48.492;9.214;2022-12-16T10:47:06;2.20;36.60
578;DHT22;275;48.492;9.214;2022-12-16T10:49:53;2.90;36.00
578;DHT22;275;48.492;9.214;2022-12-16T10:52:43;3.60;33.00
578;DHT22;275;48.492;9.214;2022-12-16T10:55:40;3.00;34.00
578;DHT22;275;48.492;9.214;2022-12-16T10:58:34;2.10;35.40
578;DHT22;275;48.492;9.214;2022-12-16T11:01:22;1.90;36.80
578;DHT22;275;48.492;9.214;2022-12-16T11:04:28;2.80;35.70
578;DHT22;275;48.492;9.214;2022-12-16T11:07:31;3.60;34.20
578;DHT22;275;48.492;9.214;2022-12-16T11:10:30;4.30;32.10
578;DHT22;275;48.492;9.214;2022-12-16T11:13:23;4.80;31.60
578;DHT22;275;48.492;9.214;2022-12-16T11:16:15;4.80;30.70
578;DHT22;275;48.492;9.214;2022-12-16T11:19:00;4.70;30.80
578;DHT22;275;48.492;9.214;2022-12-16T11:21:45;4.60;31.40
578;DHT22;275;48.492;9.214;2022-12-16T11:24:29;4.50;31.30
578;DHT22;275;48.492;9.214;2022-12-16T11:27:20;4.90;30.90
578;DHT22;275;48.492;9.214;2022-12-16T11:30:16;3.90;31.40
578;DHT22;275;48.492;9.214;2022-12-16T11:33:09;3.70;33.60
578;DHT22;275;48.492;9.214;2022-12-16T11:36:03;3.80;33.50
578;DHT22;275;48.492;9.214;2022-12-16T11:38:49;3.60;34.10
578;DHT22;275;48.492;9.214;2022-12-16T11:41:37;4.40;33.00
578;DHT22;275;48.492;9.214;2022-12-16T11:44:27;5.00;32.40
578;DHT22;275;48.492;9.214;2022-12-16T11:47:17;4.90;30.30
578;DHT22;275;48.492;9.214;2022-12-16T11:50:08;4.70;31.30
578;DHT22;275;48.492;9.214;2022-12-16T11:52:56;5.00;30.20
578;DHT22;275;48.492;9.214;2022-12-16T11:55:44;5.40;30.00
578;DHT22;275;48.492;9.214;2022-12-16T11:58:34;5.20;29.60
578;DHT22;275;48.492;9.214;2022-12-16T12:01:23;5.20;30.00
578;DHT22;275;48.492;9.214;2022-12-16T12:04:07;5.00;29.10
578;DHT22;275;48.492;9.214;2022-12-16T12:10:05;4.80;29.10
578;DHT22;275;48.492;9.214;2022-12-16T12:12:55;4.70;29.40
578;DHT22;275;48.492;9.214;2022-12-16T12:15:47;4.10;30.50
578;DHT22;275;48.492;9.214;2022-12-16T12:18:39;4.00;31.30
578;DHT22;275;48.492;9.214;2022-12-16T12:21:26;4.40;30.60
578;DHT22;275;48.492;9.214;2022-12-16T12:24:22;4.50;31.00
578;DHT22;275;48.492;9.214;2022-12-16T12:27:17;4.60;31.20
578;DHT22;275;48.492;9.214;2022-12-16T12:30:07;4.90;31.10
578;DHT22;275;48.492;9.214;2022-12-16T12:33:06;5.20;30.00
578;DHT22;275;48.492;9.214;2022-12-16T12:35:57;4.90;30.10
578;DHT22;275;48.492;9.214;2022-12-16T12:38:51;4.90;29.90
578;DHT22;275;48.492;9.214;2022-12-16T12:41:53;4.70;30.00
578;DHT22;275;48.492;9.214;2022-12-16T12:44:47;5.00;29.70
578;DHT22;275;48.492;9.214;2022-12-16T12:47:40;5.00;29.60
578;DHT22;275;48.492;9.214;2022-12-16T12:50:30;4.90;30.30
578;DHT22;275;48.492;9.214;2022-12-16T12:53:28;5.10;30.00
578;DHT22;275;48.492;9.214;2022-12-16T12:56:22;5.00;29.70
578;DHT22;275;48.492;9.214;2022-12-16T12:59:17;4.70;30.00
578;DHT22;275;48.492;9.214;2022-12-16T13:02:04;4.70;29.80
578;DHT22;275;48.492;9.214;2022-12-16T13:04:52;4.80;30.00
578;DHT22;275;48.492;9.214;2022-12-16T13:07:37;4.80;27.80
578;DHT22;275;48.492;9.214;2022-12-16T13:10:33;4.60;28.10
578;DHT22;275;48.492;9.214;2022-12-16T13:13:29;4.60;28.70
578;DHT22;275;48.492;9.214;2022-12-16T13:19:55;4.30;29.60
578;DHT22;275;48.492;9.214;2022-12-16T13:22:39;4.30;29.70
578;DHT22;275;48.492;9.214;2022-12-16T13:25:33;3.60;31.70
578;DHT22;275;48.492;9.214;2022-12-16T13:28:21;4.20;30.70
578;DHT22;275;48.492;9.214;2022-12-16T13:31:07;4.60;29.40
578;DHT22;275;48.492;9.214;2022-12-16T13:33:54;4.90;29.00
578;DHT22;275;48.492;9.214;2022-12-16T13:36:42;4.90;29.20
578;DHT22;275;48.492;9.214;2022-12-16T13:39:28;4.90;28.50
578;DHT22;275;48.492;9.214;2022-12-16T13:42:49;4.80;29.30
578;DHT22;275;48.492;9.214;2022-12-16T13:45:37;4.70;28.90
578;DHT22;275;48.492;9.214;2022-12-16T13:48:37;4.40;29.60
578;DHT22;275;48.492;9.214;2022-12-16T13:54:57;4.60;29.10
578;DHT22;275;48.492;9.214;2022-12-16T13:57:42;4.70;29.40
578;DHT22;275;48.492;9.214;2022-12-16T14:00:32;4.90;28.50
578;DHT22;275;48.492;9.214;2022-12-16T14:03:26;4.60;28.70
578;DHT22;275;48.492;9.214;2022-12-16T14:06:18;4.40;29.50
578;DHT22;275;48.492;9.214;2022-12-16T14:09:23;4.60;29.20
578;DHT22;275;48.492;9.214;2022-12-16T14:12:20;4.60;28.60
578;DHT22;275;48.492;9.214;2022-12-16T14:15:13;4.70;28.90
578;DHT22;275;48.492;9.214;2022-12-16T14:18:05;4.80;28.90
578;DHT22;275;48.492;9.214;2022-12-16T14:20:54;4.60;29.20
578;DHT22;275;48.492;9.214;2022-12-16T14:23:45;4.70;29.20
578;DHT22;275;48.492;9.214;2022-12-16T14:26:34;4.70;29.40
578;DHT22;275;48.492;9.214;2022-12-16T14:29:24;4.50;29.50
578;DHT22;275;48.492;9.214;2022-12-16T14:32:20;4.40;29.70
578;DHT22;275;48.492;9.214;2022-12-16T14:35:12;4.50;30.10
578;DHT22;275;48.492;9.214;2022-12-16T14:37:57;4.40;29.80
578;DHT22;275;48.492;9.214;2022-12-16T14:40:55;4.60;29.40
578;DHT22;275;48.492;9.214;2022-12-16T14:43:42;4.60;30.00
578;DHT22;275;48.492;9.214;2022-12-16T14:46:29;4.20;29.90
578;DHT22;275;48.492;9.214;2022-12-16T14:49:18;3.90;30.70
578;DHT22;275;48.492;9.214;2022-12-16T14:52:15;4.10;30.40
578;DHT22;275;48.492;9.214;2022-12-16T14:55:04;4.20;30.10
578;DHT22;275;48.492;9.214;2022-12-16T14:58:04;4.10;30.10
578;DHT22;275;48.492;9.214;2022-12-16T15:00:49;4.10;30.50
578;DHT22;275;48.492;9.214;2022-12-16T15:03:38;4.00;30.30
578;DHT22;275;48.492;9.214;2022-12-16T15:06:25;4.10;30.50
578;DHT22;275;48.492;9.214;2022-12-16T15:09:18;4.10;30.00
578;DHT22;275;48.492;9.214;2022-12-16T15:12:05;3.80;30.50
578;DHT22;275;48.492;9.214;2022-12-16T15:14:51;3.30;31.40
578;DHT22;275;48.492;9.214;2022-12-16T15:17:42;3.40;31.40
578;DHT22;275;48.492;9.214;2022-12-16T15:20:30;3.30;31.40
578;DHT22;275;48.492;9.214;2022-12-16T15:23:21;3.30;30.20
578;DHT22;275;48.492;9.214;2022-12-16T15:26:17;3.10;31.80
578;DHT22;275;48.492;9.214;2022-12-16T15:29:01;3.30;31.60
578;DHT22;275;48.492;9.214;2022-12-16T15:31:45;3.20;32.30
578;DHT22;275;48.492;9.214;2022-12-16T15:34:34;3.10;31.50
578;DHT22;275;48.492;9.214;2022-12-16T15:37:24;2.40;32.90
578;DHT22;275;48.492;9.214;2022-12-16T15:40:21;2.40;33.80
578;DHT22;275;48.492;9.214;2022-12-16T15:43:16;2.80;32.40
578;DHT22;275;48.492;9.214;2022-12-16T15:46:03;2.30;34.40
578;DHT22;275;48.492;9.214;2022-12-16T15:48:50;2.60;34.00
578;DHT22;275;48.492;9.214;2022-12-16T15:51:42;2.20;34.30
578;DHT22;275;48.492;9.214;2022-12-16T15:54:29;2.20;34.00
578;DHT22;275;48.492;9.214;2022-12-16T15:57:25;1.80;34.30
578;DHT22;275;48.492;9.214;2022-12-16T16:00:19;1.70;35.10
578;DHT22;275;48.492;9.214;2022-12-16T16:03:04;2.30;33.40
578;DHT22;275;48.492;9.214;2022-12-16T16:05:59;2.30;33.50
578;DHT22;275;48.492;9.214;2022-12-16T16:08:43;2.60;33.20
578;DHT22;275;48.492;9.214;2022-12-16T16:11:28;2.10;32.70
578;DHT22;275;48.492;9.214;2022-12-16T16:14:13;2.00;33.80
578;DHT22;275;48.492;9.214;2022-12-16T16:16:57;1.80;34.00
578;DHT22;275;48.492;9.214;2022-12-16T16:19:41;2.00;32.70
578;DHT22;275;48.492;9.214;2022-12-16T16:22:25;2.00;33.20
578;DHT22;275;48.492;9.214;2022-12-16T16:25:11;1.90;33.90
578;DHT22;275;48.492;9.214;2022-12-16T16:27:56;2.10;33.60
578;DHT22;275;48.492;9.214;2022-12-16T16:30:41;2.10;33.60
578;DHT22;275;48.492;9.214;2022-12-16T16:33:26;2.10;33.20
578;DHT22;275;48.492;9.214;2022-12-16T16:36:12;2.70;31.70
578;DHT22;275;48.492;9.214;2022-12-16T16:38:57;2.70;31.50
578;DHT22;275;48.492;9.214;2022-12-16T16:41:41;2.70;32.10
578;DHT22;275;48.492;9.214;2022-12-16T16:44:27;3.00;30.30
578;DHT22;275;48.492;9.214;2022-12-16T16:47:15;2.90;30.70
578;DHT22;275;48.492;9.214;2022-12-16T16:50:00;3.00;30.20
578;DHT22;275;48.492;9.214;2022-12-16T16:52:59;3.50;29.50
578;DHT22;275;48.492;9.214;2022-12-16T16:55:43;3.60;29.70
578;DHT22;275;48.492;9.214;2022-12-16T16:58:29;3.30;30.20
578;DHT22;275;48.492;9.214;2022-12-16T17:01:18;3.00;31.00
578;DHT22;275;48.492;9.214;2022-12-16T17:03:59;3.20;30.20
578;DHT22;275;48.492;9.214;2022-12-16T17:06:43;3.40;29.80
578;DHT22;275;48.492;9.214;2022-12-16T17:09:28;3.60;30.00
578;DHT22;275;48.492;9.214;2022-12-16T17:12:17;3.30;30.70
578;DHT22;275;48.492;9.214;2022-12-16T17:15:13;3.10;32.40
578;DHT22;275;48.492;9.214;2022-12-16T17:17:58;2.80;31.30
578;DHT22;275;48.492;9.214;2022-12-16T17:20:43;3.20;31.20
578;DHT22;275;48.492;9.214;2022-12-16T17:23:27;2.90;31.20
578;DHT22;275;48.492;9.214;2022-12-16T17:26:12;2.90;30.60
578;DHT22;275;48.492;9.214;2022-12-16T17:28:55;3.30;30.30
578;DHT22;275;48.492;9.214;2022-12-16T17:31:40;3.80;29.60
578;DHT22;275;48.492;9.214;2022-12-16T17:34:25;3.30;30.00
578;DHT22;275;48.492;9.214;2022-12-16T17:37:10;3.50;29.20
578;DHT22;275;48.492;9.214;2022-12-16T17:39:54;3.40;29.30
578;DHT22;275;48.492;9.214;2022-12-16T17:42:38;3.60;28.70
578;DHT22;275;48.492;9.214;2022-12-16T17:45:25;3.60;28.60
578;DHT22;275;48.492;9.214;2022-12-16T17:48:09;3.50;29.10
578;DHT22;275;48.492;9.214;2022-12-16T17:50:55;3.40;29.30
578;DHT22;275;48.492;9.214;2022-12-16T17:53:39;3.70;28.80
578;DHT22;275;48.492;9.214;2022-12-16T17:56:35;3.70;28.40
578;DHT22;275;48.492;9.214;2022-12-16T17:59:19;3.20;29.10
578;DHT22;275;48.492;9.214;2022-12-16T18:02:07;3.40;29.00
578;DHT22;275;48.492;9.214;2022-12-16T18:04:55;3.60;29.50
578;DHT22;275;48.492;9.214;2022-12-16T18:07:40;3.70;28.60
578;DHT22;275;48.492;9.214;2022-12-16T18:10:24;3.40;29.20
578;DHT22;275;48.492;9.214;2022-12-16T18:13:09;3.60;28.60
578;DHT22;275;48.492;9.214;2022-12-16T18:15:53;3.70;28.40
578;DHT22;275;48.492;9.214;2022-12-16T18:18:51;3.60;29.40
578;DHT22;275;48.492;9.214;2022-12-16T18:21:36;3.60;29.50
578;DHT22;275;48.492;9.214;2022-12-16T18:24:22;3.30;29.40
578;DHT22;275;48.492;9.214;2022-12-16T18:27:06;3.30;29.30
578;DHT22;275;48.492;9.214;2022-12-16T18:29:50;3.50;28.20
578;DHT22;275;48.492;9.214;2022-12-16T18:32:35;3.60;27.90
578;DHT22;275;48.492;9.214;2022-12-16T18:35:19;3.40;29.80
578;DHT22;275;48.492;9.214;2022-12-16T18:38:03;3.10;30.60
578;DHT22;275;48.492;9.214;2022-12-16T18:40:49;2.80;32.30
578;DHT22;275;48.492;9.214;2022-12-16T18:43:33;2.20;34.50
578;DHT22;275;48.492;9.214;2022-12-16T18:46:17;2.20;35.30
578;DHT22;275;48.492;9.214;2022-12-16T18:49:01;2.40;35.10
578;DHT22;275;48.492;9.214;2022-12-16T18:51:46;2.50;33.90
578;DHT22;275;48.492;9.214;2022-12-16T18:54:30;2.10;34.80
578;DHT22;275;48.492;9.214;2022-12-16T18:57:15;2.70;34.60